createdAt,value
2019-02-23T08:26:04.500Z,99722.88
2019-02-23T08:28:32.815Z,99724.40
2019-02-23T08:31:01.166Z,99740.98
2019-02-23T08:33:29.580Z,99746.84
2019-02-23T08:35:58.005Z,99731.86
2019-02-23T08:38:27.261Z,99725.28
2019-02-23T08:40:56.255Z,99735.72
2019-02-23T08:43:24.591Z,99735.36
2019-02-23T08:45:52.961Z,99729.27
2019-02-23T08:48:21.335Z,99738.00
2019-02-23T08:50:49.962Z,99724.38
2019-02-23T08:53:18.332Z,99735.69
2019-02-23T08:55:47.164Z,99736.24
2019-02-23T08:58:15.584Z,99735.14
2019-02-23T09:00:43.921Z,99740.53
2019-02-23T09:03:12.259Z,99732.31
2019-02-23T09:05:40.647Z,99735.34
2019-02-23T09:08:09.029Z,99729.53
2019-02-23T09:10:37.379Z,99736.83
2019-02-23T09:13:05.909Z,99738.37
2019-02-23T09:15:34.254Z,99740.81
2019-02-23T09:18:02.551Z,99744.67
2019-02-23T09:20:30.903Z,99748.59
2019-02-23T09:23:00.387Z,99755.13
2019-02-23T09:25:29.008Z,99761.31
2019-02-23T09:27:58.674Z,99763.10
2019-02-23T09:30:27.016Z,99772.97
2019-02-23T09:32:55.347Z,99767.95
2019-02-23T09:35:23.655Z,99767.97
2019-02-23T09:37:52.209Z,99766.32
2019-02-23T09:40:21.152Z,99759.15
2019-02-23T09:42:49.497Z,99757.72
2019-02-23T09:45:17.935Z,99759.09
2019-02-23T09:47:46.257Z,99755.39
2019-02-23T09:50:14.645Z,99760.89
2019-02-23T09:52:43.054Z,99747.77
2019-02-23T09:55:11.597Z,99742.77
2019-02-23T09:57:40.014Z,99749.53
2019-02-23T10:00:11.636Z,99747.41
2019-02-23T10:02:40.055Z,99738.14
2019-02-23T10:05:09.292Z,99743.25
2019-02-23T10:07:37.699Z,99739.63
2019-02-23T10:10:09.561Z,99738.09
2019-02-23T10:12:37.928Z,99736.72
2019-02-23T10:15:08.628Z,99742.89
2019-02-23T10:17:37.149Z,99733.21
2019-02-23T10:20:08.667Z,99735.55
2019-02-23T10:22:39.490Z,99739.31
2019-02-23T10:25:07.791Z,99746.56
2019-02-23T10:27:36.097Z,99749.70
2019-02-23T10:30:07.232Z,99757.59
2019-02-23T10:32:35.533Z,99762.76
2019-02-23T10:35:04.813Z,99758.66
2019-02-23T10:37:33.191Z,99762.78
2019-02-23T10:40:01.607Z,99760.88
2019-02-23T10:42:29.988Z,99765.95
2019-02-23T10:44:58.394Z,99771.41
2019-02-23T10:47:26.759Z,99773.37
2019-02-23T10:49:55.177Z,99786.89
2019-02-23T10:52:23.464Z,99777.34
2019-02-23T10:54:51.865Z,99790.63
2019-02-23T10:57:21.843Z,99783.86
2019-02-23T10:59:50.218Z,99777.70
2019-02-23T11:02:18.776Z,99776.11
2019-02-23T11:04:47.125Z,99781.92
2019-02-23T11:07:15.633Z,99776.41
2019-02-23T11:09:43.959Z,99768.70
2019-02-23T11:12:12.496Z,99770.46
2019-02-23T11:14:41.052Z,99765.53
2019-02-23T11:17:09.506Z,99763.41
2019-02-23T11:19:37.805Z,99756.09
2019-02-23T11:22:06.226Z,99755.13
2019-02-23T11:24:34.606Z,99745.82
2019-02-23T11:27:02.992Z,99740.52
2019-02-23T11:29:31.285Z,99726.37
2019-02-23T11:31:59.606Z,99717.93
2019-02-23T11:34:27.979Z,99702.30
2019-02-23T11:36:56.289Z,99700.70
2019-02-23T11:39:24.595Z,99696.27
2019-02-23T11:41:52.978Z,99693.58
2019-02-23T11:44:21.281Z,99690.41
2019-02-23T11:46:59.870Z,99693.41
2019-02-23T11:49:20.017Z,99696.04
2019-02-23T11:51:48.350Z,99689.22
2019-02-23T11:54:16.706Z,99692.17
2019-02-23T11:56:45.106Z,99690.19
2019-02-23T11:59:13.409Z,99685.85
2019-02-23T12:01:41.904Z,99684.60
2019-02-23T12:04:10.369Z,99683.40
2019-02-23T12:06:38.854Z,99680.72
2019-02-23T12:09:08.398Z,99681.17
2019-02-23T12:11:36.815Z,99681.59
2019-02-23T12:14:05.136Z,99672.77
2019-02-23T12:16:33.513Z,99677.58
2019-02-23T12:19:02.212Z,99686.54
2019-02-23T12:21:30.663Z,99680.95
2019-02-23T12:24:05.971Z,99683.00
2019-02-23T12:26:29.560Z,99670.36
2019-02-23T12:28:58.062Z,99681.53
2019-02-23T12:31:26.522Z,99682.29
2019-02-23T12:33:54.826Z,99685.02
2019-02-23T12:36:23.149Z,99676.89
2019-02-23T12:38:51.536Z,99679.32
2019-02-23T12:41:20.063Z,99675.91
2019-02-23T12:43:48.650Z,99663.84
2019-02-23T12:46:16.946Z,99660.56
2019-02-23T12:48:45.289Z,99660.70
2019-02-23T12:51:13.591Z,99649.27
2019-02-23T12:53:41.972Z,99650.91
2019-02-23T12:56:10.523Z,99653.13
2019-02-23T12:58:38.923Z,99656.26
2019-02-23T13:01:07.222Z,99638.15
2019-02-23T13:03:35.501Z,99635.52
2019-02-23T13:06:03.964Z,99627.94
2019-02-23T13:08:35.585Z,99624.26
2019-02-23T13:11:03.943Z,99600.65
2019-02-23T13:13:38.406Z,99608.66
2019-02-23T13:16:18.580Z,99607.08
2019-02-23T13:19:09.738Z,99601.68
2019-02-23T13:21:53.188Z,99614.02
2019-02-23T13:24:33.536Z,99607.01
2019-02-23T13:27:07.795Z,99612.23
2019-02-23T13:29:48.411Z,99612.82
2019-02-23T13:32:45.906Z,99612.00
2019-02-23T13:35:35.919Z,99609.02
2019-02-23T13:38:25.663Z,99606.81
2019-02-23T13:41:06.210Z,99612.55
2019-02-23T13:43:40.345Z,99611.66
2019-02-23T13:46:33.292Z,99604.39
2019-02-23T13:49:30.623Z,99596.08
2019-02-23T13:52:07.935Z,99598.22
2019-02-23T13:54:42.159Z,99592.34
2019-02-23T13:57:25.897Z,99586.36
2019-02-23T14:00:15.355Z,99591.59
2019-02-23T14:03:03.514Z,99588.72
2019-02-23T14:05:37.914Z,99600.77
2019-02-23T14:08:27.374Z,99591.05
2019-02-23T14:11:08.264Z,99593.02
2019-02-23T14:13:42.416Z,99598.98
2019-02-23T14:16:35.234Z,99595.20
2019-02-23T14:19:24.796Z,99593.87
2019-02-23T14:22:05.286Z,99590.72
2019-02-23T14:24:51.787Z,99580.13
2019-02-23T14:27:53.543Z,99575.77
2019-02-23T14:30:40.526Z,99573.02
2019-02-23T14:33:32.955Z,99578.69
2019-02-23T14:36:04.422Z,99570.59
2019-02-23T14:38:57.211Z,99567.30
2019-02-23T14:41:45.367Z,99566.50
2019-02-23T14:44:19.847Z,99572.25
2019-02-23T14:46:57.019Z,99565.00
2019-02-23T14:49:40.344Z,99568.39
2019-02-23T14:52:37.709Z,99580.84
2019-02-23T14:55:12.082Z,99577.55
2019-02-23T14:57:49.393Z,99572.92
2019-02-23T15:00:46.808Z,99569.43
2019-02-23T15:03:52.128Z,99566.17
2019-02-23T15:06:46.049Z,99560.59
2019-02-23T15:09:20.556Z,99564.62
2019-02-23T15:11:58.067Z,99550.08
2019-02-23T15:14:32.736Z,99567.09
2019-02-23T15:17:10.324Z,99565.29
2019-02-23T15:20:14.791Z,99570.11
2019-02-23T15:22:55.141Z,99573.91
2019-02-23T15:25:38.966Z,99569.64
2019-02-23T15:28:37.780Z,99565.14
2019-02-23T15:31:04.570Z,99565.76
2019-02-23T15:33:45.087Z,99565.27
2019-02-23T15:36:25.427Z,99578.23
2019-02-23T15:39:15.393Z,99578.57
2019-02-23T15:41:50.095Z,99575.38
2019-02-23T15:44:36.782Z,99568.84
2019-02-23T15:47:14.077Z,99576.73
2019-02-23T15:49:42.924Z,99571.02
2019-02-23T15:52:11.474Z,99576.50
2019-02-23T15:54:39.847Z,99576.50
2019-02-23T15:57:08.194Z,99571.45
2019-02-23T15:59:36.811Z,99559.69
2019-02-23T16:02:05.218Z,99579.03
2019-02-23T16:04:33.668Z,99586.97
2019-02-23T16:07:02.026Z,99586.97
2019-02-23T16:09:30.353Z,99591.00
2019-02-23T16:11:58.761Z,99586.78
2019-02-23T16:14:27.422Z,99577.91
2019-02-23T16:16:55.766Z,99571.41
2019-02-23T16:19:24.109Z,99571.41
2019-02-23T16:21:53.085Z,99578.91
2019-02-23T16:24:23.030Z,99576.49
2019-02-23T16:26:51.444Z,99576.49
2019-02-23T16:29:19.892Z,99578.40
2019-02-23T16:31:48.574Z,99571.70
2019-02-23T16:34:16.873Z,99571.70
2019-02-23T16:36:45.211Z,99583.77
2019-02-23T16:39:14.155Z,99583.13
2019-02-23T16:41:42.476Z,99577.45
2019-02-23T16:44:10.776Z,99584.91
2019-02-23T16:46:39.115Z,99584.91
2019-02-23T16:49:07.533Z,99603.13
2019-02-23T16:51:36.083Z,99603.95
2019-02-23T16:54:04.427Z,99603.95
2019-02-23T16:56:33.958Z,99595.77
2019-02-23T16:59:02.521Z,99601.16
2019-02-23T17:01:31.990Z,99600.34
2019-02-23T17:04:00.641Z,99600.05
2019-02-23T17:06:29.011Z,99600.27
2019-02-23T17:08:57.347Z,99599.16
2019-02-23T17:11:25.652Z,99621.30
2019-02-23T17:13:54.276Z,99621.30
2019-02-23T17:16:22.699Z,99624.95
2019-02-23T17:18:51.147Z,99627.42
2019-02-23T17:21:19.586Z,99622.28
2019-02-23T17:23:47.917Z,99622.28
2019-02-23T17:26:16.230Z,99630.75
2019-02-23T17:28:44.577Z,99631.14
2019-02-23T17:31:13.014Z,99635.70
2019-02-23T17:33:41.477Z,99639.33
2019-02-23T17:36:10.238Z,99641.45
2019-02-23T17:38:38.871Z,99644.26
2019-02-23T17:41:07.599Z,99654.02
2019-02-23T17:43:36.158Z,99655.22
2019-02-23T17:46:04.741Z,99660.09
2019-02-23T17:51:01.473Z,99658.11
2019-02-23T17:53:29.995Z,99655.39
2019-02-23T17:55:58.567Z,99662.76
2019-02-23T17:58:26.978Z,99668.13
2019-02-23T18:00:55.388Z,99667.05
2019-02-23T18:03:25.304Z,99666.53
2019-02-23T18:05:53.900Z,99675.53
2019-02-23T18:08:22.281Z,99674.48
2019-02-23T18:10:50.590Z,99681.18
2019-02-23T18:13:18.982Z,99679.05
2019-02-23T18:15:47.307Z,99676.06
2019-02-23T18:18:15.691Z,99679.55
2019-02-23T18:20:44.607Z,99679.84
2019-02-23T18:23:13.075Z,99677.67
2019-02-23T18:25:41.629Z,99687.41
2019-02-23T18:28:10.011Z,99691.09
2019-02-23T18:30:38.720Z,99702.98
2019-02-23T18:33:07.114Z,99699.81
2019-02-23T18:35:35.799Z,99699.03
2019-02-23T18:38:04.336Z,99703.00
2019-02-23T18:40:32.770Z,99711.38
2019-02-23T18:43:01.359Z,99708.48
2019-02-23T18:45:29.790Z,99704.29
2019-02-23T18:47:58.674Z,99704.27
2019-02-23T18:50:26.982Z,99711.28
2019-02-23T18:52:55.651Z,99711.48
2019-02-23T18:55:24.063Z,99706.51
2019-02-23T18:57:53.580Z,99703.41
2019-02-23T19:00:24.380Z,99708.12
2019-02-23T19:02:52.207Z,99708.75
2019-02-23T19:05:20.758Z,99706.40
2019-02-23T19:07:49.340Z,99710.91
2019-02-23T19:10:18.999Z,99713.69
2019-02-23T19:12:47.606Z,99709.47
2019-02-23T19:15:16.053Z,99708.16
2019-02-23T19:17:46.313Z,99707.91
2019-02-23T19:20:15.372Z,99715.22
2019-02-23T19:22:43.893Z,99711.53
2019-02-23T19:25:12.395Z,99716.48
2019-02-23T19:27:42.478Z,99711.94
2019-02-23T19:30:12.723Z,99716.95
2019-02-23T19:32:42.326Z,99716.27
2019-02-23T19:35:10.702Z,99714.11
2019-02-23T19:37:39.013Z,99704.70
2019-02-23T19:40:09.297Z,99710.00
2019-02-23T19:42:37.813Z,99705.75
2019-02-23T19:45:11.746Z,99704.36
2019-02-23T19:47:42.067Z,99710.47
2019-02-23T19:50:16.560Z,99710.48
2019-02-23T19:52:44.919Z,99713.03
2019-02-23T19:55:15.894Z,99707.64
2019-02-23T19:57:44.306Z,99706.41
2019-02-23T20:00:13.370Z,99701.70
2019-02-23T20:02:41.930Z,99703.89
2019-02-23T20:05:11.266Z,99703.79
2019-02-23T20:07:39.739Z,99701.88
2019-02-23T20:10:10.088Z,99699.45
2019-02-23T20:12:38.521Z,99698.52
2019-02-23T20:15:09.285Z,99701.40
2019-02-23T20:17:37.609Z,99702.22
2019-02-23T20:20:07.276Z,99697.70
2019-02-23T20:22:35.685Z,99695.23
2019-02-23T20:25:05.171Z,99699.34
2019-02-23T20:27:33.667Z,99690.08
2019-02-23T20:30:02.312Z,99701.49
2019-02-23T20:32:31.325Z,99697.20
2019-02-23T20:34:59.900Z,99704.37
2019-02-23T20:37:28.458Z,99706.53
2019-02-23T20:39:56.965Z,99710.63
2019-02-23T20:42:25.590Z,99705.91
2019-02-23T20:44:55.588Z,99714.24
2019-02-23T20:47:24.006Z,99707.45
2019-02-23T20:49:54.230Z,99715.76
2019-02-23T20:52:22.626Z,99725.50
2019-02-23T20:54:50.932Z,99722.20
2019-02-23T20:57:19.496Z,99722.39
2019-02-23T20:59:48.168Z,99719.98
2019-02-23T21:02:17.027Z,99721.63
2019-02-23T21:04:45.583Z,99714.24
2019-02-23T21:07:13.937Z,99714.14
2019-02-23T21:09:42.248Z,99715.88
2019-02-23T21:12:10.791Z,99717.63
2019-02-23T21:14:39.115Z,99712.97
2019-02-23T21:17:07.547Z,99716.05
2019-02-23T21:19:36.048Z,99710.59
2019-02-23T21:22:04.563Z,99711.73
2019-02-23T21:24:32.888Z,99698.74
2019-02-23T21:27:01.321Z,99701.73
2019-02-23T21:29:29.673Z,99699.45
2019-02-23T21:31:59.611Z,99702.73
2019-02-23T21:34:27.995Z,99698.48
2019-02-23T21:36:58.118Z,99697.51
2019-02-23T21:39:26.474Z,99696.09
2019-02-23T21:41:54.817Z,99691.78
2019-02-23T21:44:23.275Z,99680.66
2019-02-23T21:46:51.576Z,99681.52
2019-02-23T21:49:19.856Z,99686.25
2019-02-23T21:51:48.244Z,99682.45
2019-02-23T21:54:16.807Z,99678.46
2019-02-23T21:56:45.256Z,99680.92
2019-02-23T21:59:13.618Z,99679.34
2019-02-23T22:01:42.415Z,99670.93
2019-02-23T22:04:10.805Z,99678.97
2019-02-23T22:06:39.084Z,99679.31
2019-02-23T22:09:07.861Z,99673.53
2019-02-23T22:11:36.180Z,99682.41
2019-02-23T22:14:04.497Z,99689.03
2019-02-23T22:16:32.859Z,99681.70
2019-02-23T22:19:01.258Z,99691.22
2019-02-23T22:21:29.725Z,99691.36
2019-02-23T22:23:58.080Z,99687.97
2019-02-23T22:26:26.341Z,99690.52
2019-02-23T22:28:54.729Z,99694.03
2019-02-23T22:31:23.033Z,99685.14
2019-02-23T22:33:51.336Z,99684.40
2019-02-23T22:36:19.628Z,99691.74
2019-02-23T22:38:48.101Z,99696.46
2019-02-23T22:41:16.579Z,99697.48
2019-02-23T22:43:45.000Z,99696.27
2019-02-23T22:46:13.536Z,99697.26
2019-02-23T22:48:42.028Z,99703.33
2019-02-23T22:51:10.390Z,99692.45
2019-02-23T22:53:38.710Z,99694.05
2019-02-23T22:56:07.000Z,99697.84
2019-02-23T22:58:35.384Z,99696.24
2019-02-23T23:01:04.316Z,99695.55
2019-02-23T23:03:32.708Z,99695.31
2019-02-23T23:06:01.006Z,99683.69
2019-02-23T23:08:29.343Z,99688.39
2019-02-23T23:10:57.640Z,99690.05
2019-02-23T23:13:26.035Z,99705.63
2019-02-23T23:15:54.481Z,99693.97
2019-02-23T23:18:22.958Z,99699.09
2019-02-23T23:20:51.292Z,99699.53
2019-02-23T23:23:19.607Z,99690.92
2019-02-23T23:25:48.019Z,99685.30
2019-02-23T23:28:16.391Z,99689.61
2019-02-23T23:30:45.736Z,99688.89
2019-02-23T23:33:14.087Z,99695.23
2019-02-23T23:35:42.413Z,99683.48
2019-02-23T23:38:10.700Z,99690.75
2019-02-23T23:40:39.030Z,99696.35
2019-02-23T23:43:07.333Z,99697.24
2019-02-23T23:45:35.648Z,99692.20
2019-02-23T23:48:04.202Z,99697.14
2019-02-23T23:50:32.731Z,99695.70
2019-02-23T23:53:01.199Z,99692.34
2019-02-23T23:55:29.602Z,99694.14
2019-02-23T23:57:58.702Z,99695.34
